createdAt,value
2022-11-25T00:00:25.074Z,17.1
2022-11-25T00:01:27.281Z,17.1
2022-11-25T00:02:29.767Z,17
2022-11-25T00:03:32.404Z,17.1
2022-11-25T00:04:35.728Z,17.1
2022-11-25T00:05:39.339Z,17
2022-11-25T00:06:41.830Z,17.1
2022-11-25T00:07:43.782Z,17.1
2022-11-25T00:08:46.680Z,17.1
2022-11-25T00:09:48.900Z,17.1
2022-11-25T00:10:51.409Z,17.1
2022-11-25T00:11:53.618Z,17.1
2022-11-25T00:12:56.164Z,17.2
2022-11-25T00:13:58.359Z,17.1
2022-11-25T00:15:00.845Z,17.1
2022-11-25T00:16:03.467Z,17.2
2022-11-25T00:17:06.413Z,17.2
2022-11-25T00:18:09.208Z,17.2
2022-11-25T00:19:11.688Z,17.3
2022-11-25T00:20:14.156Z,17.2
2022-11-25T00:21:16.632Z,17.2
2022-11-25T00:22:19.101Z,17.2
2022-11-25T00:23:21.579Z,17.2
2022-11-25T00:24:23.789Z,17.2
2022-11-25T00:25:26.278Z,17.1
2022-11-25T00:26:28.468Z,17.2
2022-11-25T00:27:30.678Z,17.2
2022-11-25T00:28:33.216Z,17.2
2022-11-25T00:29:35.702Z,17.2
2022-11-25T00:30:37.629Z,17.2
2022-11-25T00:31:40.233Z,17.2
2022-11-25T00:32:42.744Z,17.2
2022-11-25T00:33:45.231Z,17.2
2022-11-25T00:34:47.417Z,17.2
2022-11-25T00:35:49.660Z,17.2
2022-11-25T00:36:52.147Z,17.3
2022-11-25T00:37:54.625Z,17.3
2022-11-25T00:38:56.851Z,17.2
2022-11-25T00:39:59.043Z,17.2
2022-11-25T00:41:01.249Z,17.3
2022-11-25T00:42:03.733Z,17.3
2022-11-25T00:43:05.679Z,17.3
2022-11-25T00:44:08.360Z,17.3
2022-11-25T00:45:10.575Z,17.3
2022-11-25T00:46:13.231Z,17.3
2022-11-25T00:47:15.802Z,17.3
2022-11-25T00:48:18.325Z,17.2
2022-11-25T00:49:20.553Z,17.3
2022-11-25T00:50:23.028Z,17.3
2022-11-25T00:51:25.238Z,17.3
2022-11-25T00:52:27.435Z,17.3
2022-11-25T00:53:29.640Z,17.3
2022-11-25T00:54:32.106Z,17.3
2022-11-25T00:55:35.281Z,17.2
2022-11-25T00:56:37.478Z,17.3
2022-11-25T00:57:39.956Z,17.3
2022-11-25T00:58:41.855Z,17.3
2022-11-25T00:59:44.419Z,17.3
2022-11-25T01:00:46.981Z,17.3
2022-11-25T01:01:49.454Z,17.3
2022-11-25T01:02:52.219Z,17.3
2022-11-25T01:03:54.728Z,17.4
2022-11-25T01:04:56.939Z,17.4
2022-11-25T01:05:59.441Z,17.3
2022-11-25T01:07:01.646Z,17.4
2022-11-25T01:08:04.153Z,17.4
2022-11-25T01:09:06.367Z,17.4
2022-11-25T01:10:08.849Z,17.4
2022-11-25T01:11:11.047Z,17.3
2022-11-25T01:12:13.260Z,17.3
2022-11-25T01:13:16.754Z,17.3
2022-11-25T01:14:18.963Z,17.4
2022-11-25T01:15:21.498Z,17.3
2022-11-25T01:16:23.578Z,17.4
2022-11-25T01:17:26.128Z,17.3
2022-11-25T01:18:28.633Z,17.4
2022-11-25T01:19:31.139Z,17.3
2022-11-25T01:20:33.629Z,17.3
2022-11-25T01:21:36.124Z,17.4
2022-11-25T01:22:38.325Z,17.4
2022-11-25T01:23:40.527Z,17.4
2022-11-25T01:24:42.714Z,17.4
2022-11-25T01:25:44.922Z,17.4
2022-11-25T01:26:47.391Z,17.4
2022-11-25T01:27:49.587Z,17.3
2022-11-25T01:28:51.794Z,17.4
2022-11-25T01:29:54.287Z,17.4
2022-11-25T01:30:56.863Z,17.3
2022-11-25T01:31:58.886Z,17.4
2022-11-25T01:33:01.768Z,17.4
2022-11-25T01:34:04.251Z,17.3
2022-11-25T01:35:06.747Z,17.4
2022-11-25T01:36:09.237Z,17.3
2022-11-25T01:37:11.712Z,17.3
2022-11-25T01:38:14.202Z,17.4
2022-11-25T01:39:16.408Z,17.4
2022-11-25T01:40:18.885Z,17.4
2022-11-25T01:41:21.360Z,17.4
2022-11-25T01:42:23.848Z,17.4
2022-11-25T01:43:26.344Z,17.4
2022-11-25T01:44:28.825Z,17.4
2022-11-25T01:45:31.364Z,17.4
2022-11-25T01:46:33.818Z,17.4
2022-11-25T01:47:36.022Z,17.4
2022-11-25T01:48:38.226Z,17.4
2022-11-25T01:49:40.433Z,17.4
2022-11-25T01:50:42.940Z,17.3
2022-11-25T01:51:45.431Z,17.4
2022-11-25T01:52:47.914Z,17.4
2022-11-25T01:53:50.096Z,17.4
2022-11-25T01:54:52.582Z,17.5
2022-11-25T01:55:55.056Z,17.4
2022-11-25T01:56:57.573Z,17.5
2022-11-25T01:58:00.046Z,17.4
2022-11-25T01:59:01.978Z,17.4
2022-11-25T02:00:04.175Z,17.4
2022-11-25T02:01:06.648Z,17.5
2022-11-25T02:02:09.295Z,17.5
2022-11-25T02:03:12.137Z,17.4
2022-11-25T02:04:14.602Z,17.4
2022-11-25T02:05:17.084Z,17.5
2022-11-25T02:06:19.302Z,17.4
2022-11-25T02:07:21.963Z,17.4
2022-11-25T02:08:24.627Z,17.4
2022-11-25T02:09:27.232Z,17.4
2022-11-25T02:10:29.700Z,17.4
2022-11-25T02:11:31.914Z,17.4
2022-11-25T02:12:34.109Z,17.4
2022-11-25T02:13:36.599Z,17.4
2022-11-25T02:14:39.265Z,17.4
2022-11-25T02:15:41.757Z,17.4
2022-11-25T02:16:44.343Z,17.4
2022-11-25T02:17:47.077Z,17.5
2022-11-25T02:18:49.629Z,17.4
2022-11-25T02:19:51.824Z,17.5
2022-11-25T02:20:54.305Z,17.5
2022-11-25T02:21:56.795Z,17.5
2022-11-25T02:22:59.290Z,17.5
2022-11-25T02:24:01.478Z,17.5
2022-11-25T02:25:03.968Z,17.5
2022-11-25T02:26:06.448Z,17.4
2022-11-25T02:27:08.933Z,17.5
2022-11-25T02:28:11.402Z,17.5
2022-11-25T02:29:13.893Z,17.4
2022-11-25T02:30:16.374Z,17.5
2022-11-25T02:31:18.907Z,17.4
2022-11-25T02:32:21.407Z,17.5
2022-11-25T02:33:23.970Z,17.5
2022-11-25T02:34:26.436Z,17.4
2022-11-25T02:35:28.912Z,17.4
2022-11-25T02:36:31.417Z,17.4
2022-11-25T02:37:33.383Z,17.5
2022-11-25T02:38:35.873Z,17.3
2022-11-25T02:39:38.069Z,17.4
2022-11-25T02:40:40.285Z,17.5
2022-11-25T02:41:42.473Z,17.5
2022-11-25T02:42:44.943Z,17.4
2022-11-25T02:43:46.878Z,17.5
2022-11-25T02:44:49.342Z,17.5
2022-11-25T02:45:52.045Z,17.5
2022-11-25T02:46:54.573Z,17.5
2022-11-25T02:47:57.054Z,17.6
2022-11-25T02:50:04.580Z,17.5
2022-11-25T02:51:06.782Z,17.5
2022-11-25T02:52:08.976Z,17.5
2022-11-25T02:53:11.215Z,17.5
2022-11-25T02:54:13.712Z,17.5
2022-11-25T02:55:15.922Z,17.5
2022-11-25T02:56:18.420Z,17.4
2022-11-25T02:57:20.896Z,17.4
2022-11-25T02:58:23.372Z,17.5
2022-11-25T02:59:25.850Z,17.4
2022-11-25T03:00:28.323Z,17.4
2022-11-25T03:01:30.721Z,17.5
2022-11-25T03:02:33.225Z,17.6
2022-11-25T03:03:36.002Z,17.5
2022-11-25T03:04:38.961Z,17.5
2022-11-25T03:05:41.495Z,17.4
2022-11-25T03:06:43.696Z,17.5
2022-11-25T03:07:46.054Z,17.5
2022-11-25T03:08:48.843Z,17.4
2022-11-25T03:09:51.038Z,17.5
2022-11-25T03:10:53.237Z,17.5
2022-11-25T03:11:55.717Z,17.5
2022-11-25T03:12:57.936Z,17.6
2022-11-25T03:14:00.450Z,17.4
2022-11-25T03:15:02.926Z,17.6
2022-11-25T03:16:05.349Z,17.5
2022-11-25T03:17:08.142Z,17.5
2022-11-25T03:18:10.637Z,17.4
2022-11-25T03:19:13.111Z,17.6
2022-11-25T03:20:15.652Z,17.4
2022-11-25T03:21:17.852Z,17.5
2022-11-25T03:22:20.057Z,17.4
2022-11-25T03:23:22.269Z,17.5
2022-11-25T03:24:24.493Z,17.4
2022-11-25T03:25:26.710Z,17.5
2022-11-25T03:26:29.214Z,17.5
2022-11-25T03:27:30.843Z,17.5
2022-11-25T03:28:33.053Z,17.4
2022-11-25T03:29:35.232Z,17.5
2022-11-25T03:30:37.734Z,17.5
2022-11-25T03:31:40.289Z,17.6
2022-11-25T03:32:43.091Z,17.5
2022-11-25T03:33:45.283Z,17.5
2022-11-25T03:34:47.764Z,17.6
2022-11-25T03:35:50.331Z,17.5
2022-11-25T03:36:52.427Z,17.5
2022-11-25T03:37:54.885Z,17.5
2022-11-25T03:38:57.373Z,17.5
2022-11-25T03:39:59.865Z,17.5
2022-11-25T03:41:02.106Z,17.6
2022-11-25T03:42:04.572Z,17.5
2022-11-25T03:43:06.778Z,17.5
2022-11-25T03:44:09.256Z,17.5
2022-11-25T03:45:11.731Z,17.5
2022-11-25T03:46:14.111Z,17.5
2022-11-25T03:47:16.562Z,17.5
2022-11-25T03:48:19.065Z,17.5
2022-11-25T03:49:21.548Z,17.5
2022-11-25T03:50:23.478Z,17.5
2022-11-25T03:51:26.020Z,17.5
2022-11-25T03:52:28.506Z,17.5
2022-11-25T03:53:30.703Z,17.5
2022-11-25T03:54:32.913Z,17.5
2022-11-25T03:55:36.533Z,17.5
2022-11-25T03:56:39.041Z,17.5
2022-11-25T03:57:41.531Z,17.5
2022-11-25T03:58:44.073Z,17.6
2022-11-25T03:59:46.554Z,17.5
2022-11-25T04:00:49.040Z,17.5
2022-11-25T04:01:51.739Z,17.5
2022-11-25T04:02:54.320Z,17.5
2022-11-25T04:03:56.930Z,17.5
2022-11-25T04:04:59.197Z,17.6
2022-11-25T04:06:01.936Z,17.5
2022-11-25T04:07:04.631Z,17.5
2022-11-25T04:08:07.054Z,17.6
2022-11-25T04:09:09.752Z,17.5
2022-11-25T04:10:11.962Z,17.5
2022-11-25T04:11:14.474Z,17.6
2022-11-25T04:12:16.964Z,17.5
2022-11-25T04:13:19.451Z,17.4
2022-11-25T04:14:21.650Z,17.5
2022-11-25T04:15:24.126Z,17.5
2022-11-25T04:16:26.451Z,17.4
2022-11-25T04:17:29.140Z,17.4
2022-11-25T04:18:31.612Z,17.5
2022-11-25T04:19:33.821Z,17.4
2022-11-25T04:20:36.016Z,17.5
2022-11-25T04:21:38.109Z,17.4
2022-11-25T04:22:40.762Z,17.5
2022-11-25T04:23:43.242Z,17.4
2022-11-25T04:24:45.726Z,17.4
2022-11-25T04:25:48.233Z,17.4
2022-11-25T04:26:50.741Z,17.4
2022-11-25T04:27:53.236Z,17.4
2022-11-25T04:28:55.439Z,17.4
2022-11-25T04:29:57.932Z,17.4
2022-11-25T04:31:00.503Z,17.4
2022-11-25T04:32:03.306Z,17.4
2022-11-25T04:33:05.834Z,17.3
2022-11-25T04:34:08.044Z,17.4
2022-11-25T04:35:09.949Z,17.3
2022-11-25T04:36:12.145Z,17.4
2022-11-25T04:37:14.350Z,17.5
2022-11-25T04:38:16.878Z,17.4
2022-11-25T04:39:19.362Z,17.3
2022-11-25T04:40:21.553Z,17.4
2022-11-25T04:41:23.496Z,17.4
2022-11-25T04:42:26.014Z,17.4
2022-11-25T04:43:28.224Z,17.4
2022-11-25T04:44:30.730Z,17.3
2022-11-25T04:46:38.064Z,17.3
2022-11-25T04:47:40.837Z,17.4
2022-11-25T04:48:43.029Z,17.4
2022-11-25T04:49:45.243Z,17.3
2022-11-25T04:50:47.721Z,17.3
2022-11-25T04:51:49.932Z,17.4
2022-11-25T04:52:52.411Z,17.4
2022-11-25T04:53:54.970Z,17.3
2022-11-25T04:54:57.446Z,17.3
2022-11-25T04:55:59.644Z,17.3
2022-11-25T04:57:01.866Z,17.3
2022-11-25T04:58:04.428Z,17.3
2022-11-25T04:59:06.645Z,17.4
2022-11-25T05:00:08.549Z,17.4
2022-11-25T05:01:10.869Z,17.3
2022-11-25T05:02:13.706Z,17.3
2022-11-25T05:03:16.356Z,17.3
2022-11-25T05:04:18.557Z,17.3
2022-11-25T05:05:21.029Z,17.3
2022-11-25T05:06:22.981Z,17.3
2022-11-25T05:07:25.589Z,17.4
2022-11-25T05:08:28.409Z,17.3
2022-11-25T05:09:30.946Z,17.3
2022-11-25T05:10:32.877Z,17.3
2022-11-25T05:11:35.355Z,17.4
2022-11-25T05:12:37.566Z,17.4
2022-11-25T05:13:39.767Z,17.4
2022-11-25T05:14:42.257Z,17.4
2022-11-25T05:15:44.780Z,17.3
2022-11-25T05:16:47.158Z,17.3
2022-11-25T05:17:49.629Z,17.3
2022-11-25T05:18:52.108Z,17.3
2022-11-25T05:19:53.631Z,17.3
2022-11-25T05:20:56.124Z,17.4
2022-11-25T05:21:58.311Z,17.3
2022-11-25T05:23:00.809Z,17.4
2022-11-25T05:24:03.284Z,17.3
2022-11-25T05:25:05.563Z,17.3
2022-11-25T05:26:08.028Z,17.3
2022-11-25T05:27:10.512Z,17.3
2022-11-25T05:28:12.707Z,17.3
2022-11-25T05:29:15.207Z,17.3
2022-11-25T05:30:17.688Z,17.3
2022-11-25T05:31:20.310Z,17.3
2022-11-25T05:32:22.598Z,17.3
2022-11-25T05:33:24.798Z,17.3
2022-11-25T05:34:26.995Z,17.3
2022-11-25T05:35:29.482Z,17.2
2022-11-25T05:36:31.996Z,17.3
2022-11-25T05:37:34.494Z,17.4
2022-11-25T05:38:36.704Z,17.2
2022-11-25T05:39:38.951Z,17.3
2022-11-25T05:40:41.513Z,17.2
2022-11-25T05:41:43.734Z,17.3
2022-11-25T05:42:46.367Z,17.3
2022-11-25T05:43:48.860Z,17.3
2022-11-25T05:44:51.378Z,17.3
2022-11-25T05:45:54.034Z,17.3
2022-11-25T05:46:56.726Z,17.2
2022-11-25T05:47:59.193Z,17.3
2022-11-25T05:49:01.676Z,17.3
2022-11-25T05:50:04.163Z,17.2
2022-11-25T05:51:06.092Z,17.3
2022-11-25T05:52:08.624Z,17.3
2022-11-25T05:53:11.208Z,17.3
2022-11-25T05:54:13.418Z,17.2
2022-11-25T05:55:15.639Z,17.2
2022-11-25T05:56:18.170Z,17.3
2022-11-25T05:57:20.650Z,17.2
2022-11-25T05:58:22.567Z,17.2
2022-11-25T05:59:25.171Z,17.2
2022-11-25T06:00:27.612Z,17.2
2022-11-25T06:01:30.107Z,17.3
2022-11-25T06:02:32.521Z,17.2
2022-11-25T06:03:35.367Z,17.3
2022-11-25T06:04:38.725Z,17.3
2022-11-25T06:05:41.512Z,17.3
2022-11-25T06:06:43.728Z,17.3
2022-11-25T06:07:46.153Z,17.3
2022-11-25T06:08:48.729Z,17.3
2022-11-25T06:09:50.684Z,17.3
2022-11-25T06:10:52.891Z,17.2
2022-11-25T06:11:55.526Z,17.3
2022-11-25T06:12:58.008Z,17.2
2022-11-25T06:14:00.223Z,17.2
2022-11-25T06:15:02.696Z,17.2
2022-11-25T06:17:10.212Z,17.3
2022-11-25T06:18:12.128Z,17.2
2022-11-25T06:19:14.312Z,17.3
2022-11-25T06:20:16.527Z,17.3
2022-11-25T06:21:18.720Z,17.2
2022-11-25T06:22:21.207Z,17.3
2022-11-25T06:23:23.678Z,17.2
2022-11-25T06:24:25.873Z,17.3
2022-11-25T06:25:28.070Z,17.2
2022-11-25T06:26:30.003Z,17.2
2022-11-25T06:28:37.247Z,17.2
2022-11-25T06:29:39.455Z,17.2
2022-11-25T06:30:41.412Z,17.3
2022-11-25T06:31:43.726Z,17.4
2022-11-25T06:32:46.364Z,17.2
2022-11-25T06:33:48.569Z,17.3
2022-11-25T06:34:51.090Z,17.3
2022-11-25T06:35:53.008Z,17.3
2022-11-25T06:36:55.205Z,17.2
2022-11-25T06:37:57.678Z,17.2
2022-11-25T06:38:59.884Z,17.3
2022-11-25T06:40:02.364Z,17.2
2022-11-25T06:41:04.827Z,17.2
2022-11-25T06:42:07.013Z,17.2
2022-11-25T06:43:09.547Z,17.2
2022-11-25T06:44:11.754Z,17.2
2022-11-25T06:45:14.229Z,17.2
2022-11-25T06:47:21.704Z,17.2
2022-11-25T06:48:23.959Z,17.2
2022-11-25T06:49:26.147Z,17.2
2022-11-25T06:50:28.368Z,17.2
2022-11-25T06:51:30.566Z,17.3
2022-11-25T06:52:32.778Z,17.2
2022-11-25T06:53:34.722Z,17.2
2022-11-25T06:54:37.037Z,17.3
2022-11-25T06:55:39.901Z,17.2
2022-11-25T06:56:42.381Z,17.2
2022-11-25T06:57:44.318Z,17.1
2022-11-25T06:58:46.854Z,17.2
2022-11-25T06:59:49.329Z,17.2
2022-11-25T07:00:51.823Z,17.2
2022-11-25T07:01:54.141Z,17.2
2022-11-25T07:02:56.732Z,17.2
2022-11-25T07:03:59.216Z,17.3
2022-11-25T07:05:01.700Z,17.2
2022-11-25T07:06:03.996Z,17.2
2022-11-25T07:07:06.201Z,17.2
2022-11-25T07:08:08.395Z,17.2
2022-11-25T07:09:10.887Z,17.2
2022-11-25T07:10:13.082Z,17.2
2022-11-25T07:11:15.568Z,17.2
2022-11-25T07:12:18.043Z,17.3
2022-11-25T07:13:20.234Z,17.3
2022-11-25T07:14:22.495Z,17.2
2022-11-25T07:15:24.979Z,17.2
2022-11-25T07:16:27.753Z,17.2
2022-11-25T07:17:30.239Z,17.2
2022-11-25T07:18:32.748Z,17.1
2022-11-25T07:19:35.004Z,17.2
2022-11-25T07:20:36.919Z,17.2
2022-11-25T07:21:39.130Z,17.3
2022-11-25T07:22:41.607Z,17.3
2022-11-25T07:23:43.793Z,17.2
2022-11-25T07:24:46.441Z,17.2
2022-11-25T07:25:48.637Z,17.1
2022-11-25T07:26:50.861Z,17.2
2022-11-25T07:27:52.793Z,17.2
2022-11-25T07:28:55.276Z,17.2
2022-11-25T07:33:12.725Z,17.2
2022-11-25T07:34:15.422Z,17.2
2022-11-25T07:35:17.681Z,17.2
2022-11-25T07:36:19.590Z,17.1
2022-11-25T07:37:22.074Z,17.2
2022-11-25T07:38:24.575Z,17.2
2022-11-25T07:39:27.051Z,17.2
2022-11-25T07:40:29.545Z,17.2
2022-11-25T07:41:32.011Z,17.1
2022-11-25T07:42:34.197Z,17.2
2022-11-25T07:43:36.667Z,17.2
2022-11-25T07:44:39.169Z,17.2
2022-11-25T07:45:41.703Z,17.1
2022-11-25T07:46:44.137Z,17.2
2022-11-25T07:47:46.537Z,17.2
2022-11-25T07:48:48.465Z,17.2
2022-11-25T07:49:50.968Z,17.2
2022-11-25T07:50:53.500Z,17.3
2022-11-25T07:51:55.696Z,17.2
2022-11-25T07:52:57.908Z,17.2
2022-11-25T07:54:00.389Z,17.2
2022-11-25T07:55:02.595Z,17.2
2022-11-25T07:56:05.068Z,17.2
2022-11-25T07:57:07.002Z,17.1
2022-11-25T07:58:09.486Z,17.1
2022-11-25T07:59:11.691Z,17.2
2022-11-25T08:00:13.895Z,17.2
2022-11-25T08:01:16.616Z,17.2
2022-11-25T08:02:18.844Z,17.1
2022-11-25T08:03:21.635Z,17.1
2022-11-25T08:04:24.191Z,17.1
2022-11-25T08:05:26.673Z,17.2
2022-11-25T08:06:28.913Z,17.1
2022-11-25T08:08:36.100Z,17.2
2022-11-25T08:09:39.187Z,17.2
2022-11-25T08:10:41.762Z,17.2
2022-11-25T08:11:44.004Z,17.2
2022-11-25T08:12:46.236Z,17.2
2022-11-25T08:13:48.728Z,17.1
2022-11-25T08:14:50.677Z,17.2
2022-11-25T08:15:53.009Z,17.2
2022-11-25T08:16:55.578Z,17.3
2022-11-25T08:17:57.802Z,17.2
2022-11-25T08:19:00.325Z,17.2
2022-11-25T08:20:02.811Z,17.2
2022-11-25T08:21:05.012Z,17.1
2022-11-25T08:22:07.560Z,17.1
2022-11-25T08:23:10.048Z,17.2
2022-11-25T08:24:11.979Z,17.2
2022-11-25T08:25:14.203Z,17.2
2022-11-25T08:26:16.690Z,17.1
2022-11-25T08:27:18.604Z,17.1
2022-11-25T08:28:20.519Z,17.1
2022-11-25T08:29:22.455Z,17.2
2022-11-25T08:30:24.763Z,17.2
2022-11-25T08:31:27.078Z,17.1
2022-11-25T08:32:29.985Z,17.1
2022-11-25T08:33:32.503Z,17.2
2022-11-25T08:34:34.746Z,17.1
2022-11-25T08:35:37.254Z,17.1
2022-11-25T08:37:44.584Z,17.1
2022-11-25T08:38:47.083Z,17.2
2022-11-25T08:40:54.260Z,17.1
2022-11-25T08:41:56.496Z,17.2
2022-11-25T08:42:59.004Z,17.2
2022-11-25T08:44:01.204Z,17.1
2022-11-25T08:45:03.417Z,17.1
2022-11-25T08:46:05.771Z,17.1
2022-11-25T08:47:08.224Z,17.2
2022-11-25T08:48:10.532Z,17.1
2022-11-25T08:49:13.011Z,17.1
2022-11-25T08:50:15.519Z,17.2
2022-11-25T08:51:17.445Z,17.2
2022-11-25T08:52:19.369Z,17.1
2022-11-25T08:53:21.630Z,17.1
2022-11-25T08:54:23.822Z,17.1
2022-11-25T08:55:26.311Z,17.1
2022-11-25T08:56:28.814Z,17.2
2022-11-25T08:57:30.740Z,17.2
2022-11-25T08:58:32.962Z,17.1
2022-11-25T08:59:36.396Z,17.1
2022-11-25T09:00:39.997Z,17.1
2022-11-25T09:01:42.726Z,17.1
2022-11-25T09:02:45.653Z,17.1
2022-11-25T09:03:48.390Z,17.1
2022-11-25T09:04:50.924Z,17.2
2022-11-25T09:05:53.409Z,17.2
2022-11-25T09:06:55.632Z,17.2
2022-11-25T09:07:57.923Z,17.2
2022-11-25T09:09:00.687Z,17.2
2022-11-25T09:10:03.135Z,17.2
2022-11-25T09:11:05.243Z,17.1
2022-11-25T09:12:07.681Z,17.1
2022-11-25T09:13:09.687Z,17
2022-11-25T09:14:12.404Z,17.1
2022-11-25T09:15:14.618Z,17.1
2022-11-25T09:16:17.296Z,17.1
2022-11-25T09:17:19.986Z,17.1
2022-11-25T09:18:21.920Z,17.1
2022-11-25T09:19:24.542Z,17
2022-11-25T09:20:27.037Z,17.1
2022-11-25T09:21:28.969Z,17.2
2022-11-25T09:22:31.448Z,17.1
2022-11-25T09:23:33.934Z,17.2
2022-11-25T09:24:35.898Z,17.2
2022-11-25T09:25:37.897Z,17.1
2022-11-25T09:26:40.395Z,17.2
2022-11-25T09:27:42.685Z,17.1
2022-11-25T09:28:44.654Z,17.1
2022-11-25T09:29:46.388Z,17.1
2022-11-25T09:30:48.978Z,17.1
2022-11-25T09:32:56.779Z,17.1
2022-11-25T09:33:59.303Z,17.2
2022-11-25T09:35:01.838Z,17.1
2022-11-25T09:36:03.820Z,17.2
2022-11-25T09:37:06.090Z,17.2
2022-11-25T09:38:08.662Z,17.1
2022-11-25T09:39:11.421Z,17.1
2022-11-25T09:40:13.989Z,17.1
2022-11-25T09:41:16.225Z,17.1
2022-11-25T09:42:18.479Z,17
2022-11-25T09:43:20.996Z,17.2
2022-11-25T09:44:23.491Z,17.1
2022-11-25T09:45:25.704Z,17.1
2022-11-25T09:46:27.753Z,17
2022-11-25T09:47:29.955Z,17.1
2022-11-25T09:48:32.164Z,17.1
2022-11-25T09:49:35.141Z,17.1
2022-11-25T09:50:39.263Z,17.2
2022-11-25T09:51:41.741Z,17.1
2022-11-25T09:52:44.224Z,17.1
2022-11-25T09:53:46.743Z,17.1
2022-11-25T09:54:48.957Z,17.1
2022-11-25T09:55:51.517Z,17.1
2022-11-25T09:56:57.483Z,17.1
2022-11-25T09:58:00.261Z,17.1
2022-11-25T09:59:02.500Z,17.1
2022-11-25T10:00:04.724Z,17.1
2022-11-25T10:01:06.662Z,17.1
2022-11-25T10:02:08.740Z,17.1
2022-11-25T10:03:11.639Z,17.2
2022-11-25T10:04:14.402Z,17.1
2022-11-25T10:05:16.873Z,17.1
2022-11-25T10:06:19.678Z,17.1
2022-11-25T10:07:21.831Z,17.2
2022-11-25T10:08:24.310Z,17.1
2022-11-25T10:09:26.252Z,17.1
2022-11-25T10:10:28.738Z,17.1
2022-11-25T10:11:30.999Z,17.1
2022-11-25T10:12:33.485Z,17.1
2022-11-25T10:13:35.702Z,17.1
2022-11-25T10:14:38.208Z,17.1
2022-11-25T10:15:40.883Z,17.1
2022-11-25T10:17:48.573Z,17.1
2022-11-25T10:18:50.790Z,17.1
2022-11-25T10:19:52.429Z,17.1
2022-11-25T10:20:54.918Z,17.1
2022-11-25T10:21:57.489Z,17.1
2022-11-25T10:22:59.706Z,17
2022-11-25T10:24:01.647Z,17.1
2022-11-25T10:25:04.138Z,17.1
2022-11-25T10:26:06.665Z,17.1
2022-11-25T10:27:08.954Z,17.2
2022-11-25T10:28:11.171Z,17.1
2022-11-25T10:29:13.662Z,17.1
2022-11-25T10:30:16.141Z,17.1
2022-11-25T10:31:18.935Z,17.1
2022-11-25T10:32:21.226Z,17
2022-11-25T10:33:23.443Z,17.1
2022-11-25T10:34:25.379Z,17.1
2022-11-25T10:35:27.318Z,17.1
2022-11-25T10:36:29.267Z,17.1
2022-11-25T10:37:31.884Z,17.1
2022-11-25T10:38:34.104Z,17.1
2022-11-25T10:39:36.044Z,17.1
2022-11-25T10:40:38.548Z,17.1
2022-11-25T10:41:40.759Z,17.1
2022-11-25T10:42:43.033Z,17.1
2022-11-25T10:43:44.984Z,17
2022-11-25T10:44:46.926Z,17.1
2022-11-25T10:45:48.870Z,17.1
2022-11-25T10:47:56.523Z,17
2022-11-25T10:48:58.954Z,17
2022-11-25T10:50:01.196Z,17
2022-11-25T10:51:03.729Z,17.1
2022-11-25T10:52:06.218Z,17.1
2022-11-25T10:53:08.594Z,17
2022-11-25T10:54:11.083Z,17.1
2022-11-25T10:55:13.312Z,17.1
2022-11-25T10:56:15.245Z,17.1
2022-11-25T10:57:17.443Z,17.1
2022-11-25T10:58:19.981Z,17
2022-11-25T10:59:22.471Z,17
2022-11-25T11:00:24.652Z,17.1
2022-11-25T11:01:27.286Z,17
2022-11-25T11:02:30.113Z,17
2022-11-25T11:03:32.566Z,17.1
2022-11-25T11:04:35.322Z,17.1
2022-11-25T11:06:43.868Z,17.1
2022-11-25T11:07:46.520Z,17.1
2022-11-25T11:08:49.394Z,17
2022-11-25T11:09:51.051Z,17
2022-11-25T11:11:58.248Z,17.1
2022-11-25T11:13:00.183Z,17.1
2022-11-25T11:14:02.744Z,17.1
2022-11-25T11:15:05.225Z,17
2022-11-25T11:16:07.536Z,17.1
2022-11-25T11:17:09.937Z,17
2022-11-25T11:18:12.144Z,17.1
2022-11-25T11:19:14.362Z,17.1
2022-11-25T11:20:16.747Z,17
2022-11-25T11:21:19.227Z,17.1
2022-11-25T11:22:21.148Z,17.1
2022-11-25T11:23:23.628Z,17
2022-11-25T11:24:25.891Z,17.1
2022-11-25T11:25:28.103Z,17
2022-11-25T11:26:30.580Z,17
2022-11-25T11:27:33.066Z,17.1
2022-11-25T11:28:35.300Z,17
2022-11-25T11:29:37.845Z,17.1
2022-11-25T11:30:40.062Z,17.1
2022-11-25T11:31:42.696Z,17
2022-11-25T11:32:45.505Z,17.1
2022-11-25T11:33:47.712Z,17.1
2022-11-25T11:34:50.227Z,17
2022-11-25T11:35:52.709Z,17.1
2022-11-25T11:36:54.913Z,17
2022-11-25T11:37:57.386Z,17
2022-11-25T11:38:59.562Z,17
2022-11-25T11:40:01.853Z,17
2022-11-25T11:41:04.035Z,17
2022-11-25T11:42:06.234Z,17.1
2022-11-25T11:43:08.722Z,17.1
2022-11-25T11:44:11.246Z,17
2022-11-25T11:45:13.555Z,17
2022-11-25T11:46:16.186Z,17
2022-11-25T11:47:18.322Z,17.1
2022-11-25T11:48:20.531Z,16.9
2022-11-25T11:50:28.010Z,17
2022-11-25T11:51:30.543Z,17
2022-11-25T11:52:33.346Z,17.1
2022-11-25T11:53:35.275Z,17
2022-11-25T11:54:38.328Z,17
2022-11-25T11:55:41.419Z,17.1
2022-11-25T11:56:43.615Z,17
2022-11-25T11:57:45.830Z,17
2022-11-25T11:58:48.032Z,17.1
2022-11-25T11:59:50.525Z,17
2022-11-25T12:00:52.802Z,17.1
2022-11-25T12:01:55.215Z,17
2022-11-25T12:02:57.882Z,17.1
2022-11-25T12:04:00.491Z,17.1
2022-11-25T12:05:02.714Z,17
2022-11-25T12:06:05.214Z,17.1
2022-11-25T12:07:06.988Z,17
2022-11-25T12:08:09.890Z,17.1
2022-11-25T12:09:12.098Z,17
2022-11-25T12:10:14.304Z,17.1
2022-11-25T12:11:16.864Z,17
2022-11-25T12:12:19.092Z,17.1
2022-11-25T12:13:21.580Z,17
2022-11-25T12:14:24.075Z,17.1
2022-11-25T12:15:26.591Z,17
2022-11-25T12:16:29.305Z,17.1
2022-11-25T12:17:32.226Z,17.1
2022-11-25T12:18:34.659Z,17.1
2022-11-25T12:19:36.854Z,17
2022-11-25T12:20:39.344Z,17.1
2022-11-25T12:21:42.891Z,17
2022-11-25T12:22:45.092Z,17
2022-11-25T12:23:47.326Z,17
2022-11-25T12:24:49.523Z,17.1
2022-11-25T12:25:51.740Z,17
2022-11-25T12:26:54.284Z,17
2022-11-25T12:27:56.210Z,17
2022-11-25T12:28:58.439Z,17
2022-11-25T12:30:00.923Z,17
2022-11-25T12:32:08.260Z,17
2022-11-25T12:33:10.859Z,17
2022-11-25T12:34:13.376Z,17.1
2022-11-25T12:35:15.911Z,17
2022-11-25T12:36:18.402Z,17.1
2022-11-25T12:37:20.359Z,17.1
2022-11-25T12:38:22.835Z,17
2022-11-25T12:39:25.328Z,17.1
2022-11-25T12:40:27.608Z,17
2022-11-25T12:41:29.632Z,17
2022-11-25T12:42:32.182Z,17
2022-11-25T12:43:34.722Z,17
2022-11-25T12:44:37.514Z,17.1
2022-11-25T12:45:40.813Z,17.1
2022-11-25T12:46:43.109Z,17.1
2022-11-25T12:47:45.942Z,17
2022-11-25T12:48:48.651Z,17
2022-11-25T12:49:50.861Z,17.1
2022-11-25T12:50:53.067Z,16.9
2022-11-25T12:51:55.286Z,17
2022-11-25T12:52:57.762Z,17
2022-11-25T12:54:00.252Z,17
2022-11-25T12:55:02.471Z,17
2022-11-25T12:56:04.690Z,17
2022-11-25T12:57:06.904Z,17.1
2022-11-25T12:58:09.599Z,17
2022-11-25T12:59:11.855Z,16.9
2022-11-25T13:01:19.575Z,17
2022-11-25T13:02:22.528Z,17
2022-11-25T13:03:25.325Z,17
2022-11-25T13:04:27.547Z,17.1
2022-11-25T13:06:35.009Z,17
2022-11-25T13:07:37.613Z,17.1
2022-11-25T13:08:40.032Z,17
2022-11-25T13:09:41.969Z,17
2022-11-25T13:10:44.446Z,17
2022-11-25T13:11:47.685Z,17
2022-11-25T13:12:52.983Z,17
2022-11-25T13:13:58.165Z,17
2022-11-25T13:15:03.246Z,17
2022-11-25T13:16:08.498Z,17.1
2022-11-25T13:17:14.170Z,17
2022-11-25T13:18:18.927Z,17
2022-11-25T13:19:21.551Z,17.1
2022-11-25T13:20:23.761Z,17
2022-11-25T13:21:25.975Z,17
2022-11-25T13:22:28.222Z,17
2022-11-25T13:23:30.456Z,17
2022-11-25T13:24:32.689Z,17
2022-11-25T13:25:35.707Z,17
2022-11-25T13:26:38.284Z,17.1
2022-11-25T13:27:40.702Z,17.1
2022-11-25T13:28:43.206Z,17
2022-11-25T13:29:45.772Z,17.1
2022-11-25T13:30:48.253Z,17
2022-11-25T13:32:55.434Z,17
2022-11-25T13:33:57.940Z,17
2022-11-25T13:35:00.483Z,17
2022-11-25T13:36:02.680Z,17
2022-11-25T13:37:05.173Z,17.1
2022-11-25T13:38:07.672Z,17
2022-11-25T13:39:10.162Z,17
2022-11-25T13:40:12.434Z,17
2022-11-25T13:41:14.917Z,17
2022-11-25T13:42:17.239Z,17
2022-11-25T13:43:19.609Z,17
2022-11-25T13:44:21.799Z,16.9
2022-11-25T13:45:24.440Z,17.1
2022-11-25T13:46:26.848Z,17
2022-11-25T13:47:29.367Z,17
2022-11-25T13:48:32.089Z,17
2022-11-25T13:49:34.576Z,17
2022-11-25T13:51:41.809Z,17
2022-11-25T13:52:44.312Z,17.1
2022-11-25T13:53:46.854Z,16.9
2022-11-25T13:54:49.113Z,17
2022-11-25T13:55:51.619Z,17
2022-11-25T13:56:53.835Z,17
2022-11-25T13:57:56.018Z,17
2022-11-25T13:58:58.245Z,17
2022-11-25T14:00:00.739Z,16.9
2022-11-25T14:01:03.313Z,17.1
2022-11-25T14:02:05.940Z,17
2022-11-25T14:03:08.634Z,17
2022-11-25T14:04:11.392Z,17.1
2022-11-25T14:05:27.948Z,17
2022-11-25T14:06:30.528Z,17
2022-11-25T14:07:33.265Z,17.2
2022-11-25T14:08:35.848Z,17.1
2022-11-25T14:09:39.063Z,17
2022-11-25T14:10:41.731Z,17
2022-11-25T14:11:43.958Z,17.1
2022-11-25T14:12:45.873Z,17.1
2022-11-25T14:13:48.495Z,17
2022-11-25T14:14:51.018Z,17.1
2022-11-25T14:15:53.090Z,16.9
2022-11-25T14:16:55.828Z,16.9
2022-11-25T14:17:58.537Z,17
2022-11-25T14:20:05.159Z,17.1
2022-11-25T14:21:07.683Z,17.1
2022-11-25T14:22:09.920Z,17
2022-11-25T14:23:12.158Z,17.1
2022-11-25T14:24:19.112Z,17